Time;durP1;ratioP1;P1;durP2;ratioP2;P2;SDS_P1;SDS_P2;PMS_P1;PMS_P2;Temp;Humidity;BMP_temperature;BMP_pressure;BME280_temperature;BME280_humidity;BME280_pressure;Samples;Min_cycle;Max_cycle;Signal;HPM_P1;HPM_P2
2021/09/07 00:00:58;;;;;;;24.33;15.13;;;14.40;99.90;;;;;;5008644;28;20105;-59
2021/09/07 00:03:23;;;;;;;25.85;15.27;;;14.30;99.90;;;;;;5009777;28;20036;-57
2021/09/07 00:05:49;;;;;;;26.27;15.20;;;14.40;99.90;;;;;;5009233;28;20033;-59
2021/09/07 00:08:14;;;;;;;25.50;15.25;;;14.30;99.90;;;;;;5005697;28;20027;-59
2021/09/07 00:10:40;;;;;;;28.27;14.75;;;14.30;99.90;;;;;;5009534;28;20108;-59
2021/09/07 00:13:06;;;;;;;27.50;16.05;;;14.30;99.90;;;;;;5010840;28;20026;-58
2021/09/07 00:15:31;;;;;;;25.75;16.00;;;14.20;99.90;;;;;;5007390;28;20058;-59
2021/09/07 00:17:57;;;;;;;22.83;14.45;;;14.20;99.90;;;;;;5003207;28;20026;-58
2021/09/07 00:20:23;;;;;;;25.27;15.18;;;14.30;99.90;;;;;;5006535;28;20522;-56
2021/09/07 00:22:49;;;;;;;26.00;16.33;;;14.20;99.90;;;;;;5005836;28;20558;-58
2021/09/07 00:25:15;;;;;;;26.83;15.60;;;14.20;99.90;;;;;;5008340;28;20109;-59
2021/09/07 00:27:40;;;;;;;24.73;15.70;;;14.20;99.90;;;;;;5008182;28;20129;-55
2021/09/07 00:30:07;;;;;;;29.08;15.35;;;14.20;99.90;;;;;;5002148;28;20062;-58
2021/09/07 00:32:32;;;;;;;21.55;14.38;;;14.20;99.90;;;;;;5007954;28;20026;-53
2021/09/07 00:34:58;;;;;;;21.50;14.98;;;14.20;99.90;;;;;;5003370;28;20035;-58
2021/09/07 00:37:23;;;;;;;27.15;17.05;;;14.20;99.90;;;;;;4996094;28;20030;-61
2021/09/07 00:39:49;;;;;;;32.78;17.90;;;14.30;99.90;;;;;;5005363;28;20153;-60
2021/09/07 00:42:15;;;;;;;28.35;16.15;;;14.30;99.90;;;;;;5007166;28;20101;-56
2021/09/07 00:44:41;;;;;;;25.58;17.15;;;14.20;99.90;;;;;;5009123;28;20034;-58
2021/09/07 00:47:06;;;;;;;24.50;15.98;;;14.20;99.90;;;;;;5001573;28;20041;-56
2021/09/07 00:49:33;;;;;;;27.63;17.17;;;14.30;99.90;;;;;;5006986;28;20126;-57
2021/09/07 00:51:59;;;;;;;27.17;16.33;;;14.30;99.90;;;;;;4999472;28;20366;-58
2021/09/07 00:54:28;;;;;;;26.55;15.98;;;14.30;99.90;;;;;;5006395;28;20029;-57
2021/09/07 00:56:55;;;;;;;23.83;16.13;;;14.20;99.90;;;;;;5004313;28;20091;-58
2021/09/07 00:59:22;;;;;;;28.63;16.48;;;14.10;99.90;;;;;;5007057;28;20033;-58
2021/09/07 01:01:48;;;;;;;26.38;16.17;;;14.00;99.90;;;;;;5007091;28;20021;-59
2021/09/07 01:04:14;;;;;;;30.67;17.70;;;13.90;99.90;;;;;;5000044;28;20366;-55
2021/09/07 01:06:40;;;;;;;29.02;16.63;;;13.90;99.90;;;;;;5007369;28;20030;-54
2021/09/07 01:09:06;;;;;;;30.83;17.48;;;13.80;99.90;;;;;;5008016;28;20563;-59
2021/09/07 01:11:33;;;;;;;35.15;18.33;;;13.80;99.90;;;;;;5005113;28;20022;-56
2021/09/07 01:13:59;;;;;;;25.13;15.32;;;13.80;99.90;;;;;;5001588;28;20109;-58
2021/09/07 01:16:25;;;;;;;26.92;15.90;;;13.80;99.90;;;;;;5004966;28;20105;-58
2021/09/07 01:18:51;;;;;;;27.77;16.50;;;13.80;99.90;;;;;;5006027;28;20037;-59
2021/09/07 01:21:17;;;;;;;27.13;16.35;;;13.80;99.90;;;;;;5002837;28;20050;-58
2021/09/07 01:23:45;;;;;;;31.45;16.30;;;13.80;99.90;;;;;;5006932;28;20033;-58
2021/09/07 01:26:12;;;;;;;32.13;15.80;;;13.80;99.90;;;;;;5004924;28;20636;-55
2021/09/07 01:28:39;;;;;;;29.67;16.90;;;13.80;99.90;;;;;;5008018;28;20032;-58
2021/09/07 01:31:07;;;;;;;26.00;16.30;;;13.80;99.90;;;;;;5001342;28;20026;-59
2021/09/07 01:33:34;;;;;;;27.63;16.02;;;13.80;99.90;;;;;;4999720;28;20062;-57
2021/09/07 01:36:00;;;;;;;23.17;17.08;;;13.80;99.90;;;;;;5006690;28;20038;-57
2021/09/07 01:38:28;;;;;;;24.23;15.38;;;13.90;99.90;;;;;;5000719;28;20030;-51
2021/09/07 01:40:54;;;;;;;28.02;17.63;;;13.90;99.90;;;;;;5005544;28;20504;-59
2021/09/07 01:43:20;;;;;;;24.27;16.48;;;13.80;99.90;;;;;;5000536;28;20053;-58
2021/09/07 01:45:51;;;;;;;28.15;16.27;;;13.80;99.90;;;;;;4998784;28;20104;-58
2021/09/07 01:48:22;;;;;;;25.05;15.90;;;13.70;99.90;;;;;;5003480;28;20029;-57
2021/09/07 01:50:48;;;;;;;26.33;17.42;;;13.70;99.90;;;;;;4998807;28;20030;-57
2021/09/07 01:53:14;;;;;;;28.90;17.35;;;13.60;99.90;;;;;;5005159;28;20061;-57
2021/09/07 01:55:40;;;;;;;28.63;16.92;;;13.50;99.90;;;;;;5005011;28;20034;-55
2021/09/07 01:58:05;;;;;;;28.55;16.90;;;13.50;99.90;;;;;;5005864;28;20029;-56
2021/09/07 02:00:31;;;;;;;28.77;16.00;;;13.40;99.90;;;;;;5002310;28;20034;-60
2021/09/07 02:02:57;;;;;;;28.48;16.45;;;13.40;99.90;;;;;;5002056;28;20030;-60
2021/09/07 02:05:23;;;;;;;24.50;16.40;;;13.30;99.90;;;;;;5002558;28;20116;-57
2021/09/07 02:07:48;;;;;;;25.15;16.10;;;13.30;99.90;;;;;;5008292;28;20030;-60
2021/09/07 02:10:14;;;;;;;29.65;15.95;;;13.20;99.90;;;;;;5000779;28;20476;-59
2021/09/07 02:12:40;;;;;;;23.88;16.00;;;13.20;99.90;;;;;;5008515;28;20024;-60
2021/09/07 02:15:07;;;;;;;23.10;15.68;;;13.20;99.90;;;;;;5003394;28;20424;-58
2021/09/07 02:17:33;;;;;;;27.33;16.73;;;13.20;99.90;;;;;;4997392;28;20053;-59
2021/09/07 02:19:58;;;;;;;28.10;16.98;;;13.30;99.90;;;;;;4999205;28;20437;-55
2021/09/07 02:22:25;;;;;;;26.30;17.67;;;13.30;99.90;;;;;;5003192;28;20029;-59
2021/09/07 02:24:51;;;;;;;31.05;17.25;;;13.30;99.90;;;;;;5005908;28;20025;-59
2021/09/07 02:27:17;;;;;;;30.05;17.35;;;13.30;99.90;;;;;;5001877;28;20034;-57
2021/09/07 02:29:42;;;;;;;24.25;15.82;;;13.30;99.90;;;;;;5004195;28;20366;-55
2021/09/07 02:32:08;;;;;;;25.67;17.17;;;13.40;99.90;;;;;;5003571;28;20393;-59
2021/09/07 02:34:34;;;;;;;29.25;17.17;;;13.40;99.90;;;;;;4999693;28;20054;-57
2021/09/07 02:37:00;;;;;;;31.00;17.50;;;13.40;99.90;;;;;;5007144;28;20026;-57
2021/09/07 02:39:26;;;;;;;26.90;16.40;;;13.50;99.90;;;;;;5009356;28;20517;-54
2021/09/07 02:41:52;;;;;;;27.77;17.25;;;13.50;99.90;;;;;;5005714;28;20058;-58
2021/09/07 02:44:18;;;;;;;35.90;18.05;;;13.40;99.90;;;;;;5001686;28;20069;-53
2021/09/07 02:46:44;;;;;;;28.52;18.00;;;13.40;99.90;;;;;;4999140;28;20045;-55
2021/09/07 02:49:10;;;;;;;25.23;16.60;;;13.40;99.90;;;;;;5008893;28;20042;-59
2021/09/07 02:51:36;;;;;;;24.35;17.35;;;13.40;99.90;;;;;;5004459;28;20034;-56
2021/09/07 02:54:02;;;;;;;27.20;16.73;;;13.30;99.90;;;;;;5004269;28;20099;-59
2021/09/07 02:56:27;;;;;;;23.73;15.68;;;13.30;99.90;;;;;;5005326;28;20749;-59
2021/09/07 02:58:53;;;;;;;25.67;17.13;;;13.30;99.90;;;;;;4997969;28;20029;-57
2021/09/07 03:01:18;;;;;;;28.75;18.05;;;13.20;99.90;;;;;;5003322;28;20037;-56
2021/09/07 03:03:44;;;;;;;27.95;16.70;;;13.10;99.90;;;;;;5003673;28;20033;-55
2021/09/07 03:06:10;;;;;;;24.33;15.48;;;13.10;99.90;;;;;;5004370;28;20239;-57
2021/09/07 03:08:35;;;;;;;25.17;17.10;;;13.10;99.90;;;;;;4998788;28;20505;-57
2021/09/07 03:11:01;;;;;;;25.33;15.80;;;13.00;99.90;;;;;;5001326;28;20037;-58
2021/09/07 03:13:27;;;;;;;28.45;17.63;;;13.00;99.90;;;;;;5004630;28;20033;-60
2021/09/07 03:15:52;;;;;;;28.23;16.30;;;13.00;99.90;;;;;;4999595;28;20026;-56
2021/09/07 03:18:18;;;;;;;26.95;17.00;;;13.00;99.90;;;;;;5006765;28;20101;-49
2021/09/07 03:20:43;;;;;;;24.80;17.13;;;12.90;99.90;;;;;;5003953;28;20036;-57
2021/09/07 03:23:09;;;;;;;28.15;17.35;;;12.90;99.90;;;;;;5001448;28;20092;-58
2021/09/07 03:25:35;;;;;;;30.95;17.15;;;12.80;99.90;;;;;;4999953;28;20081;-57
2021/09/07 03:28:00;;;;;;;27.85;17.17;;;12.80;99.90;;;;;;4961152;28;20057;-57
2021/09/07 03:30:26;;;;;;;30.13;16.55;;;12.70;99.90;;;;;;4996848;28;20026;-56
2021/09/07 03:32:52;;;;;;;29.25;17.20;;;12.70;99.90;;;;;;5000761;28;20057;-57
2021/09/07 03:35:18;;;;;;;26.50;17.55;;;12.70;99.90;;;;;;5005709;28;20049;-58
2021/09/07 03:37:44;;;;;;;23.27;15.48;;;12.70;99.90;;;;;;5000806;28;20769;-56
2021/09/07 03:40:11;;;;;;;27.52;18.08;;;12.80;99.90;;;;;;5008925;28;20030;-58
2021/09/07 03:42:38;;;;;;;26.88;17.23;;;12.80;99.90;;;;;;4999600;28;20034;-59
2021/09/07 03:45:05;;;;;;;28.30;16.73;;;12.90;99.90;;;;;;5006106;28;20030;-57
2021/09/07 03:47:31;;;;;;;27.35;16.02;;;12.90;99.90;;;;;;5002999;28;20066;-58
2021/09/07 03:49:56;;;;;;;31.27;16.80;;;13.00;99.90;;;;;;5001130;28;20046;-58
2021/09/07 03:52:22;;;;;;;31.88;18.02;;;13.00;99.90;;;;;;5006868;28;20022;-59
2021/09/07 03:54:48;;;;;;;26.75;17.20;;;13.00;99.90;;;;;;5008742;28;20121;-58
2021/09/07 03:57:14;;;;;;;27.85;17.08;;;13.00;99.90;;;;;;5009090;28;20513;-56
2021/09/07 03:59:39;;;;;;;25.70;17.38;;;13.00;99.90;;;;;;5003931;28;20041;-56
2021/09/07 04:02:05;;;;;;;32.92;18.05;;;13.00;99.90;;;;;;5000307;28;20038;-58
2021/09/07 04:04:31;;;;;;;25.83;16.90;;;13.00;99.90;;;;;;4999838;28;20555;-55
2021/09/07 04:06:57;;;;;;;26.58;17.00;;;13.00;99.90;;;;;;5006675;28;20034;-56
2021/09/07 04:09:23;;;;;;;27.70;16.27;;;13.00;99.90;;;;;;4999749;28;20069;-57
2021/09/07 04:11:50;;;;;;;24.98;16.92;;;13.00;99.90;;;;;;5000451;28;20027;-59
2021/09/07 04:14:16;;;;;;;26.92;15.98;;;13.00;99.90;;;;;;5003441;28;20056;-60
2021/09/07 04:16:41;;;;;;;27.83;16.55;;;13.00;99.90;;;;;;5002471;28;20053;-56
2021/09/07 04:19:07;;;;;;;31.52;17.63;;;12.90;99.90;;;;;;5008818;28;20404;-58
2021/09/07 04:21:32;;;;;;;24.80;16.02;;;13.00;99.90;;;;;;5008157;28;20028;-58
2021/09/07 04:23:58;;;;;;;27.45;16.67;;;13.00;99.90;;;;;;5005783;28;20034;-56
2021/09/07 04:26:24;;;;;;;29.58;17.52;;;12.90;99.90;;;;;;5007295;28;20463;-58
2021/09/07 04:28:49;;;;;;;26.98;16.48;;;12.90;99.90;;;;;;5008201;28;20108;-57
2021/09/07 04:31:15;;;;;;;26.73;17.77;;;13.00;99.90;;;;;;5007928;28;20516;-57
2021/09/07 04:33:41;;;;;;;24.70;15.95;;;13.00;99.90;;;;;;5008434;28;20405;-57
2021/09/07 04:36:06;;;;;;;26.15;16.98;;;13.00;99.90;;;;;;5007595;28;20030;-60
2021/09/07 04:38:32;;;;;;;24.67;16.35;;;13.10;99.90;;;;;;5010689;28;20072;-60
2021/09/07 04:40:58;;;;;;;25.08;16.80;;;13.10;99.90;;;;;;5003851;28;20038;-56
2021/09/07 04:43:24;;;;;;;25.38;16.27;;;13.20;99.90;;;;;;5007914;28;20030;-60
2021/09/07 04:45:49;;;;;;;29.48;16.77;;;13.20;99.90;;;;;;5003726;28;20033;-57
2021/09/07 04:48:15;;;;;;;30.42;16.17;;;13.20;99.90;;;;;;5005092;28;20029;-58
2021/09/07 04:50:40;;;;;;;31.27;17.60;;;13.20;99.90;;;;;;5005569;28;20042;-59
2021/09/07 04:53:06;;;;;;;26.40;16.27;;;13.10;99.90;;;;;;5005627;28;20114;-60
2021/09/07 04:55:31;;;;;;;28.08;15.82;;;13.10;99.90;;;;;;5009477;28;20029;-59
2021/09/07 04:57:57;;;;;;;25.33;15.90;;;13.10;99.90;;;;;;5001194;28;20034;-58
2021/09/07 05:00:22;;;;;;;30.65;17.05;;;13.00;99.90;;;;;;5004895;28;20037;-53
2021/09/07 05:02:48;;;;;;;26.55;16.40;;;13.00;99.90;;;;;;5006646;28;20029;-56
2021/09/07 05:05:14;;;;;;;28.42;16.88;;;13.10;99.90;;;;;;5006107;28;20030;-59
2021/09/07 05:07:40;;;;;;;27.13;16.27;;;13.10;99.90;;;;;;5003007;28;20040;-56
2021/09/07 05:10:06;;;;;;;25.42;15.30;;;13.20;99.90;;;;;;5003014;28;20026;-59
2021/09/07 05:12:32;;;;;;;23.90;15.95;;;13.20;99.90;;;;;;5000184;28;20026;-59
2021/09/07 05:14:58;;;;;;;21.98;15.70;;;13.20;99.90;;;;;;5004525;28;20085;-58
2021/09/07 05:17:23;;;;;;;23.70;15.95;;;13.30;99.90;;;;;;4999198;28;20034;-58
2021/09/07 05:19:49;;;;;;;25.67;16.20;;;13.30;99.90;;;;;;5010375;28;20040;-59
2021/09/07 05:22:14;;;;;;;24.80;16.58;;;13.40;99.90;;;;;;5010985;28;20112;-54
2021/09/07 05:24:40;;;;;;;26.70;15.90;;;13.60;99.90;;;;;;5011276;28;20030;-57
2021/09/07 05:27:05;;;;;;;24.08;16.58;;;13.60;99.90;;;;;;5005246;28;20036;-55
2021/09/07 05:29:31;;;;;;;23.30;15.15;;;13.70;99.90;;;;;;5009373;28;20393;-58
2021/09/07 05:31:56;;;;;;;22.42;15.18;;;13.70;99.90;;;;;;5009030;28;20544;-54
2021/09/07 05:34:23;;;;;;;24.15;16.17;;;13.80;99.90;;;;;;5006418;28;20034;-57
2021/09/07 05:36:48;;;;;;;27.73;15.93;;;13.80;99.90;;;;;;5002729;28;20105;-59
2021/09/07 05:39:14;;;;;;;22.65;15.82;;;13.70;99.90;;;;;;5007748;28;20557;-55
2021/09/07 05:41:40;;;;;;;19.85;13.77;;;13.70;99.90;;;;;;5009497;28;20038;-54
2021/09/07 05:44:05;;;;;;;26.67;14.93;;;13.80;99.90;;;;;;5004114;28;20181;-57
2021/09/07 05:46:32;;;;;;;23.98;15.15;;;14.00;99.90;;;;;;5004594;28;20045;-57
2021/09/07 05:48:57;;;;;;;22.25;14.82;;;14.00;99.90;;;;;;5010039;28;20025;-57
2021/09/07 05:51:23;;;;;;;21.90;14.70;;;13.90;99.90;;;;;;5006996;28;20019;-57
2021/09/07 05:53:48;;;;;;;24.30;15.05;;;14.10;99.90;;;;;;5007345;28;20026;-60
2021/09/07 05:56:16;;;;;;;26.42;14.95;;;14.10;99.90;;;;;;5006343;28;20024;-59
2021/09/07 05:58:42;;;;;;;25.83;14.52;;;14.20;99.90;;;;;;5001675;28;20117;-57
2021/09/07 06:01:07;;;;;;;21.67;14.60;;;14.30;99.90;;;;;;5009201;28;20033;-59
2021/09/07 06:03:33;;;;;;;21.23;14.65;;;14.40;99.90;;;;;;4998143;28;20022;-57
2021/09/07 06:05:58;;;;;;;23.92;13.98;;;14.50;99.90;;;;;;5004125;28;20129;-59
2021/09/07 06:08:24;;;;;;;20.10;13.60;;;14.60;99.90;;;;;;5004513;28;20486;-57
2021/09/07 06:10:49;;;;;;;21.35;14.45;;;14.70;99.90;;;;;;5000539;28;20028;-58
2021/09/07 06:13:15;;;;;;;21.63;14.48;;;14.90;99.90;;;;;;5006831;28;20026;-58
2021/09/07 06:15:41;;;;;;;23.20;13.20;;;14.90;99.90;;;;;;5000606;28;20038;-60
2021/09/07 06:18:07;;;;;;;23.80;15.05;;;15.00;99.90;;;;;;5005048;28;20105;-58
2021/09/07 06:20:33;;;;;;;19.60;13.43;;;14.90;99.90;;;;;;5000117;28;20057;-58
2021/09/07 06:22:59;;;;;;;25.05;14.80;;;14.80;99.90;;;;;;5001308;28;20069;-54
2021/09/07 06:25:26;;;;;;;21.92;14.90;;;14.80;99.90;;;;;;5005345;28;20052;-57
2021/09/07 06:27:51;;;;;;;24.00;13.88;;;14.90;99.90;;;;;;5003955;28;20112;-57
2021/09/07 06:30:17;;;;;;;23.42;13.43;;;14.90;99.90;;;;;;5006413;28;20454;-59
2021/09/07 06:32:43;;;;;;;23.67;14.40;;;15.10;99.90;;;;;;5006193;28;20105;-58
2021/09/07 06:35:09;;;;;;;21.30;13.13;;;15.20;99.90;;;;;;4997036;28;20027;-57
2021/09/07 06:37:35;;;;;;;23.10;14.55;;;15.30;99.90;;;;;;4975125;28;20394;-58
2021/09/07 06:40:01;;;;;;;22.60;14.48;;;15.40;99.90;;;;;;5002573;28;20040;-59
2021/09/07 06:42:28;;;;;;;21.92;13.88;;;15.50;99.90;;;;;;5007137;28;20033;-60
2021/09/07 06:44:54;;;;;;;23.77;13.27;;;15.50;99.90;;;;;;4988989;28;20088;-59
2021/09/07 06:47:19;;;;;;;23.13;15.48;;;15.40;99.90;;;;;;5007281;28;20037;-58
2021/09/07 06:49:45;;;;;;;23.48;15.38;;;15.50;99.90;;;;;;5001549;28;20057;-57
2021/09/07 06:52:11;;;;;;;21.67;14.15;;;15.60;99.90;;;;;;5004396;28;20026;-58
2021/09/07 06:54:36;;;;;;;22.13;14.50;;;15.60;99.90;;;;;;5014297;28;20026;-59
2021/09/07 06:57:02;;;;;;;23.45;14.82;;;15.50;99.90;;;;;;4998277;28;20033;-59
2021/09/07 06:59:27;;;;;;;21.35;14.02;;;15.50;99.90;;;;;;5007392;28;20107;-58
2021/09/07 07:01:53;;;;;;;25.98;14.77;;;15.60;99.90;;;;;;5003081;28;20038;-59
2021/09/07 07:04:19;;;;;;;31.63;15.48;;;15.60;99.90;;;;;;4999056;28;20029;-59
2021/09/07 07:06:44;;;;;;;20.05;14.00;;;15.70;99.90;;;;;;5002184;28;20466;-60
2021/09/07 07:09:10;;;;;;;22.38;14.82;;;15.80;99.90;;;;;;4988935;28;20037;-59
2021/09/07 07:11:35;;;;;;;20.50;14.55;;;16.00;99.90;;;;;;4991700;28;20027;-57
2021/09/07 07:14:01;;;;;;;19.52;15.05;;;16.20;99.90;;;;;;4999337;28;20053;-60
2021/09/07 07:16:26;;;;;;;20.88;14.23;;;16.30;99.90;;;;;;5008210;28;20033;-53
2021/09/07 07:18:52;;;;;;;20.17;14.77;;;16.40;99.90;;;;;;4997207;28;20031;-58
2021/09/07 07:21:18;;;;;;;22.55;15.73;;;16.60;99.90;;;;;;4999787;28;20026;-57
2021/09/07 07:23:43;;;;;;;23.13;15.73;;;16.60;99.90;;;;;;5002686;28;20022;-60
2021/09/07 07:26:09;;;;;;;20.92;13.85;;;16.80;99.90;;;;;;4998507;28;20417;-59
2021/09/07 07:28:34;;;;;;;19.55;13.82;;;17.00;99.90;;;;;;5004460;28;20030;-56
2021/09/07 07:31:00;;;;;;;26.00;14.15;;;17.10;99.90;;;;;;5001083;28;20037;-56
2021/09/07 07:33:26;;;;;;;23.13;14.50;;;17.30;99.90;;;;;;5010553;28;20025;-49
2021/09/07 07:35:51;;;;;;;21.20;14.25;;;17.60;99.90;;;;;;4982329;28;21100;-53
2021/09/07 07:38:17;;;;;;;20.05;11.95;;;17.80;99.90;;;;;;4997680;28;20042;-59
2021/09/07 07:40:44;;;;;;;25.00;14.40;;;17.70;99.90;;;;;;5003595;28;20109;-55
2021/09/07 07:43:10;;;;;;;21.08;14.25;;;17.80;99.90;;;;;;5003958;28;20033;-58
2021/09/07 07:45:36;;;;;;;20.88;14.07;;;17.90;99.90;;;;;;5003271;28;20046;-59
2021/09/07 07:48:02;;;;;;;19.13;13.63;;;18.10;99.90;;;;;;5006629;28;20026;-57
2021/09/07 07:50:29;;;;;;;20.92;13.55;;;18.50;99.90;;;;;;5007172;28;20038;-55
2021/09/07 07:52:55;;;;;;;17.50;13.13;;;18.70;99.90;;;;;;5003939;28;20478;-59
2021/09/07 07:55:21;;;;;;;17.27;12.93;;;18.80;99.90;;;;;;5009116;28;20014;-56
2021/09/07 07:57:46;;;;;;;17.35;12.20;;;19.10;99.90;;;;;;5002757;28;20099;-58
2021/09/07 08:00:13;;;;;;;18.58;12.43;;;19.50;99.90;;;;;;5007418;28;20045;-57
2021/09/07 08:02:39;;;;;;;20.83;13.15;;;19.60;99.90;;;;;;5004971;28;20100;-58
2021/09/07 08:05:05;;;;;;;19.13;12.70;;;19.70;99.90;;;;;;4997963;28;20033;-57
2021/09/07 08:07:30;;;;;;;19.10;12.25;;;20.00;99.90;;;;;;5006548;28;20026;-58
2021/09/07 08:09:56;;;;;;;18.58;13.25;;;19.90;99.90;;;;;;5007403;28;20084;-59
2021/09/07 08:12:22;;;;;;;21.92;12.52;;;19.70;99.90;;;;;;5013973;28;20033;-52
2021/09/07 08:14:48;;;;;;;21.85;12.88;;;19.40;99.90;;;;;;5004604;28;20030;-58
2021/09/07 08:17:14;;;;;;;20.08;13.10;;;19.20;99.90;;;;;;5006300;28;20033;-57
2021/09/07 08:19:40;;;;;;;25.27;14.70;;;19.20;99.90;;;;;;5009344;28;20041;-58
2021/09/07 08:22:06;;;;;;;19.48;14.00;;;19.30;99.90;;;;;;5002565;28;20035;-60
2021/09/07 08:24:32;;;;;;;18.67;12.35;;;19.60;99.90;;;;;;5011776;28;20424;-58
2021/09/07 08:26:57;;;;;;;16.90;11.85;;;19.90;99.90;;;;;;5013741;28;20025;-57
2021/09/07 08:29:23;;;;;;;21.25;13.00;;;20.10;99.90;;;;;;5003551;28;20500;-58
2021/09/07 08:31:48;;;;;;;24.20;12.52;;;20.30;99.90;;;;;;5011904;28;20025;-59
2021/09/07 08:34:14;;;;;;;18.13;12.55;;;20.10;99.90;;;;;;5009169;28;20648;-60
2021/09/07 08:36:39;;;;;;;16.27;11.68;;;20.10;99.90;;;;;;4991323;28;20050;-60
2021/09/07 08:39:05;;;;;;;21.60;13.82;;;20.10;99.90;;;;;;5010217;28;20559;-60
2021/09/07 08:41:31;;;;;;;18.45;12.10;;;20.20;99.90;;;;;;5008890;28;20033;-59
2021/09/07 08:43:56;;;;;;;23.23;12.68;;;20.50;99.90;;;;;;4997886;28;20038;-60
2021/09/07 08:46:22;;;;;;;17.63;11.65;;;20.80;99.90;;;;;;5000668;28;20030;-54
2021/09/07 08:48:48;;;;;;;19.67;12.30;;;20.80;99.90;;;;;;5004650;28;20157;-58
2021/09/07 08:51:15;;;;;;;21.10;12.93;;;21.00;99.90;;;;;;5002099;28;20029;-59
2021/09/07 08:53:41;;;;;;;21.52;12.45;;;21.60;99.90;;;;;;5001650;28;20445;-60
2021/09/07 08:56:11;;;;;;;19.30;13.52;;;21.70;99.90;;;;;;5000501;28;20033;-59
2021/09/07 08:58:37;;;;;;;19.75;12.73;;;22.00;99.90;;;;;;5000478;28;20389;-60
2021/09/07 09:01:16;;;;;;;20.92;12.55;;;21.90;99.90;;;;;;5005022;28;20517;-59
2021/09/07 09:03:44;;;;;;;17.70;12.25;;;22.20;99.90;;;;;;5003434;28;20022;-59
2021/09/07 09:06:10;;;;;;;19.05;12.63;;;22.50;99.90;;;;;;5000328;28;20034;-57
2021/09/07 09:08:36;;;;;;;17.23;12.20;;;22.10;99.90;;;;;;5004460;28;20026;-60
2021/09/07 09:11:08;;;;;;;18.17;12.95;;;22.40;99.90;;;;;;4998974;28;20412;-58
2021/09/07 09:14:00;;;;;;;14.55;12.38;;;23.10;99.90;;;;;;4997681;28;20026;-59
2021/09/07 09:16:30;;;;;;;15.95;12.93;;;23.50;99.90;;;;;;5008585;28;20488;-57
2021/09/07 09:18:56;;;;;;;17.85;12.73;;;23.40;99.90;;;;;;5001661;28;20391;-57
2021/09/07 09:21:32;;;;;;;14.95;11.68;;;23.80;99.90;;;;;;5004716;28;20033;-59
2021/09/07 09:24:18;;;;;;;26.45;12.70;;;23.80;99.90;;;;;;5005972;28;20101;-59
2021/09/07 09:26:51;;;;;;;16.42;12.27;;;24.20;99.30;;;;;;5003739;28;20040;-58
2021/09/07 09:29:27;;;;;;;17.20;12.95;;;24.50;98.20;;;;;;4991320;28;20079;-60
2021/09/07 09:32:01;;;;;;;20.58;12.45;;;24.60;97.70;;;;;;5001860;28;20042;-59
2021/09/07 09:34:28;;;;;;;17.50;13.02;;;24.60;97.80;;;;;;4995873;28;20045;-60
2021/09/07 09:37:08;;;;;;;18.23;13.00;;;24.60;97.50;;;;;;4985585;28;20575;-59
2021/09/07 09:39:51;;;;;;;20.92;13.40;;;24.80;97.10;;;;;;5007250;28;20022;-59
2021/09/07 09:42:26;;;;;;;20.43;13.60;;;25.10;96.70;;;;;;5008580;28;20076;-52
2021/09/07 09:45:08;;;;;;;16.75;13.20;;;25.30;95.90;;;;;;4993849;28;20289;-60
2021/09/07 09:47:40;;;;;;;19.80;12.85;;;25.30;95.30;;;;;;5008561;28;20065;-59
2021/09/07 09:50:07;;;;;;;16.75;12.30;;;25.60;94.80;;;;;;5000090;28;20444;-58
2021/09/07 09:52:37;;;;;;;19.90;14.65;;;25.50;95.00;;;;;;5004311;28;20041;-58
2021/09/07 09:55:05;;;;;;;18.20;13.25;;;25.50;94.70;;;;;;5005397;28;20033;-58
2021/09/07 09:57:33;;;;;;;16.85;12.57;;;25.20;95.20;;;;;;4997906;28;20030;-56
2021/09/07 10:00:00;;;;;;;16.88;12.75;;;25.50;95.20;;;;;;5011153;28;20137;-59
2021/09/07 10:02:28;;;;;;;19.35;14.05;;;25.40;93.90;;;;;;5000290;28;20037;-58
2021/09/07 10:04:55;;;;;;;18.33;12.82;;;25.10;94.10;;;;;;5014479;28;20399;-61
2021/09/07 10:07:21;;;;;;;17.15;12.75;;;25.20;95.00;;;;;;5012504;28;20032;-57
2021/09/07 10:09:48;;;;;;;19.38;14.30;;;25.60;93.50;;;;;;5012021;28;20034;-59
2021/09/07 10:12:32;;;;;;;22.92;13.57;;;25.80;93.30;;;;;;4995487;28;20049;-59
2021/09/07 10:15:37;;;;;;;20.67;14.13;;;25.50;93.40;;;;;;4996411;28;20057;-59
2021/09/07 10:26:14;;;;;;;21.27;14.68;;;25.10;93.20;;;;;;4998287;28;20137;-60
2021/09/07 10:28:44;;;;;;;23.63;13.38;;;25.30;93.10;;;;;;5006160;28;20053;-59
2021/09/07 10:31:10;;;;;;;18.45;14.07;;;25.30;92.80;;;;;;4998102;28;20064;-62
2021/09/07 10:33:58;;;;;;;19.67;13.57;;;25.30;92.50;;;;;;5001735;28;20030;-59
2021/09/07 10:36:26;;;;;;;22.38;14.93;;;25.20;92.10;;;;;;4966487;28;20033;-52
2021/09/07 10:39:01;;;;;;;18.77;13.30;;;25.20;92.70;;;;;;5002954;28;20025;-61
2021/09/07 10:41:33;;;;;;;16.42;12.35;;;25.20;92.60;;;;;;5005837;28;20030;-59
2021/09/07 10:44:02;;;;;;;18.08;12.55;;;25.70;92.60;;;;;;5002264;28;20500;-60
2021/09/07 10:46:55;;;;;;;23.85;12.80;;;26.00;92.00;;;;;;5002812;28;20057;-59
2021/09/07 10:49:40;;;;;;;21.63;14.55;;;26.30;92.80;;;;;;5000746;28;20053;-59
2021/09/07 10:52:15;;;;;;;19.73;14.55;;;26.00;90.20;;;;;;4998732;28;20096;-60
2021/09/07 10:54:52;;;;;;;24.55;13.35;;;25.90;91.10;;;;;;4998520;28;20034;-59
2021/09/07 10:57:43;;;;;;;22.40;13.60;;;25.80;91.20;;;;;;5001557;28;20033;-58
2021/09/07 11:00:30;;;;;;;21.98;12.57;;;25.90;91.10;;;;;;4986778;28;20033;-58
2021/09/07 11:03:07;;;;;;;23.13;14.75;;;25.80;90.20;;;;;;5005416;28;20029;-57
2021/09/07 11:05:41;;;;;;;17.73;13.38;;;26.00;90.70;;;;;;5002850;28;20034;-59
2021/09/07 11:08:08;;;;;;;17.67;13.10;;;26.20;87.30;;;;;;4997718;28;20030;-56
2021/09/07 11:10:37;;;;;;;17.17;12.60;;;26.20;87.70;;;;;;5005107;28;20018;-52
2021/09/07 11:13:19;;;;;;;19.67;12.52;;;26.30;85.90;;;;;;5002283;28;20501;-60
2021/09/07 11:15:45;;;;;;;13.55;10.35;;;26.60;80.50;;;;;;5003732;28;20064;-59
2021/09/07 11:18:13;;;;;;;17.52;11.32;;;26.60;79.60;;;;;;5005530;28;20061;-55
2021/09/07 11:20:47;;;;;;;17.15;12.32;;;26.40;73.20;;;;;;5003438;28;20034;-58
2021/09/07 11:23:17;;;;;;;17.35;12.88;;;26.30;74.30;;;;;;5006711;28;20030;-56
2021/09/07 11:26:07;;;;;;;15.85;11.88;;;26.30;75.60;;;;;;5006296;28;20061;-57
2021/09/07 11:28:35;;;;;;;16.70;12.23;;;26.50;72.60;;;;;;4992788;28;20042;-59
2021/09/07 11:31:02;;;;;;;18.10;12.35;;;26.60;76.90;;;;;;5006279;28;20030;-54
2021/09/07 11:33:36;;;;;;;16.70;12.10;;;26.70;77.20;;;;;;5004088;28;20112;-60
2021/09/07 11:36:03;;;;;;;;;;;26.70;76.10;;;;;;5003886;28;20109;-58
2021/09/07 11:38:34;;;;;;;15.82;11.77;;;27.00;77.20;;;;;;4988587;28;19924;-56
2021/09/07 11:41:04;;;;;;;19.33;12.73;;;26.80;76.90;;;;;;5004232;28;20037;-60
2021/09/07 11:43:33;;;;;;;15.75;11.30;;;26.80;78.60;;;;;;4997735;28;20160;-60
2021/09/07 11:46:17;;;;;;;18.67;12.45;;;26.70;79.80;;;;;;5009932;28;20113;-60
2021/09/07 11:48:54;;;;;;;14.88;11.65;;;26.90;81.50;;;;;;5012228;28;20125;-59
2021/09/07 11:51:28;;;;;;;17.15;12.05;;;26.60;81.10;;;;;;5011527;28;20373;-58
2021/09/07 11:53:56;;;;;;;15.57;11.23;;;26.40;81.50;;;;;;5009323;28;20026;-61
2021/09/07 11:56:33;;;;;;;17.08;11.45;;;26.30;82.50;;;;;;5012836;28;20030;-61
2021/09/07 11:59:16;;;;;;;14.65;10.73;;;26.10;80.70;;;;;;4999233;28;20026;-60
2021/09/07 12:01:44;;;;;;;15.13;11.32;;;26.10;81.80;;;;;;5002740;28;20100;-59
2021/09/07 12:04:17;;;;;;;12.35;9.38;;;25.90;82.30;;;;;;5013478;28;20646;-61
2021/09/07 12:06:52;;;;;;;13.43;9.93;;;25.90;83.90;;;;;;5009622;28;20037;-59
2021/09/07 12:09:28;;;;;;;11.70;9.15;;;25.90;79.10;;;;;;5013938;28;20045;-62
2021/09/07 12:12:03;;;;;;;10.02;8.10;;;25.90;80.00;;;;;;5010361;28;20026;-61
2021/09/07 12:14:35;;;;;;;12.40;9.23;;;25.90;79.90;;;;;;5005080;28;20064;-59
2021/09/07 12:17:07;;;;;;;12.10;8.90;;;26.10;81.60;;;;;;5010310;28;20481;-57
2021/09/07 12:19:32;;;;;;;11.40;8.10;;;26.10;79.50;;;;;;5004833;28;20060;-57
2021/09/07 12:22:10;;;;;;;10.63;8.52;;;26.10;80.20;;;;;;5009462;28;20053;-60
2021/09/07 12:24:37;;;;;;;9.48;7.47;;;26.20;80.10;;;;;;5005644;28;20044;-59
2021/09/07 12:27:26;;;;;;;13.73;9.27;;;26.30;80.50;;;;;;5011129;28;20041;-60
2021/09/07 12:30:10;;;;;;;13.02;9.02;;;26.30;79.40;;;;;;4996826;28;20121;-61
2021/09/07 12:32:49;;;;;;;14.55;8.88;;;26.30;82.00;;;;;;5008158;28;20029;-60
2021/09/07 12:35:39;;;;;;;10.43;8.38;;;26.40;83.00;;;;;;5009008;28;20056;-61
2021/09/07 12:38:09;;;;;;;8.20;6.68;;;26.30;80.30;;;;;;4993188;28;20042;-59
2021/09/07 12:40:43;;;;;;;10.82;8.23;;;26.40;80.20;;;;;;5006940;28;20129;-60